Virginia, Washington
Current Conditions -  °F | °C
As of 11:15 PM on Friday 24 Oct 2014 (Local Time) from KPWT Reporting Station
Broken Clouds Broken Clouds  
Wind Chill: 44°   Ceiling: 4100
Heat Index: 48°   Visibility: 10mi
Dew Point: 48°   Wind: 9mph
Humidity: 100%   Direction: 10°N
Pressure: 29.79"   Gusts: NA
Location:  47.7571°N, 122.623°W
Report Text: KPWT 250615Z AUTO 01008KT 10SM BKN041 09/09 A2979 RMK AO1 P0002
Loading
Personal Weather Stations






























Interactive Weather Map
Tropical Storm Tracking
New forecast layout! Learn more

10-Day Weather Forecast

Advertisements
Track Severe Weather on mobile